sensor_id;sensor_type;location;lat;lon;timestamp;pressure;altitude;pressure_sealevel;temperature;humidity
46129;BME280;31860;45.186;5.790;2023-05-03T00:01:35;99413.19;;;17.42;58.07
46129;BME280;31860;45.186;5.790;2023-05-03T00:04:01;99410.53;;;17.44;58.22
46129;BME280;31860;45.186;5.790;2023-05-03T00:06:27;99412.34;;;17.42;58.58
46129;BME280;31860;45.186;5.790;2023-05-03T00:08:53;99420.31;;;17.40;58.72
46129;BME280;31860;45.186;5.790;2023-05-03T00:11:18;99415.03;;;17.39;58.86
46129;BME280;31860;45.186;5.790;2023-05-03T00:13:44;99426.53;;;17.38;58.92
46129;BME280;31860;45.186;5.790;2023-05-03T00:16:10;99430.09;;;17.35;59.11
46129;BME280;31860;45.186;5.790;2023-05-03T00:18:35;99425.69;;;17.36;59.09
46129;BME280;31860;45.186;5.790;2023-05-03T00:21:00;99421.28;;;17.35;59.31
46129;BME280;31860;45.186;5.790;2023-05-03T00:23:26;99418.75;;;17.32;59.56
46129;BME280;31860;45.186;5.790;2023-05-03T00:25:53;99421.47;;;17.29;59.85
46129;BME280;31860;45.186;5.790;2023-05-03T00:28:19;99416.19;;;17.27;59.95
46129;BME280;31860;45.186;5.790;2023-05-03T00:30:44;99422.38;;;17.26;60.00
46129;BME280;31860;45.186;5.790;2023-05-03T00:33:10;99422.47;;;17.23;60.06
46129;BME280;31860;45.186;5.790;2023-05-03T00:35:35;99420.72;;;17.22;59.91
46129;BME280;31860;45.186;5.790;2023-05-03T00:38:01;99419.00;;;17.21;59.90
46129;BME280;31860;45.186;5.790;2023-05-03T00:40:26;99422.53;;;17.20;59.86
46129;BME280;31860;45.186;5.790;2023-05-03T00:42:51;99417.28;;;17.19;59.98
46129;BME280;31860;45.186;5.790;2023-05-03T00:45:17;99422.56;;;17.19;60.31
46129;BME280;31860;45.186;5.790;2023-05-03T00:47:42;99423.50;;;17.16;60.28
46129;BME280;31860;45.186;5.790;2023-05-03T00:50:08;99414.72;;;17.16;60.33
46129;BME280;31860;45.186;5.790;2023-05-03T00:52:35;99416.44;;;17.17;60.56
46129;BME280;31860;45.186;5.790;2023-05-03T00:55:01;99409.50;;;17.13;60.78
46129;BME280;31860;45.186;5.790;2023-05-03T00:57:28;99408.63;;;17.12;60.82
46129;BME280;31860;45.186;5.790;2023-05-03T00:59:55;99408.75;;;17.08;61.10
46129;BME280;31860;45.186;5.790;2023-05-03T01:02:21;99408.78;;;17.06;61.08
46129;BME280;31860;45.186;5.790;2023-05-03T01:04:47;99398.25;;;17.04;61.13
46129;BME280;31860;45.186;5.790;2023-05-03T01:15:43;99397.56;;;16.96;61.75
46129;BME280;31860;45.186;5.790;2023-05-03T01:18:11;99400.25;;;16.95;61.44
46129;BME280;31860;45.186;5.790;2023-05-03T01:20:42;99395.91;;;16.92;61.92
46129;BME280;31860;45.186;5.790;2023-05-03T01:23:20;99392.41;;;16.90;61.94
46129;BME280;31860;45.186;5.790;2023-05-03T01:25:51;99395.13;;;16.87;61.84
46129;BME280;31860;45.186;5.790;2023-05-03T01:28:17;99403.94;;;16.86;61.82
46129;BME280;31860;45.186;5.790;2023-05-03T01:30:42;99405.69;;;16.86;61.96
46129;BME280;31860;45.186;5.790;2023-05-03T01:35:49;99409.34;;;16.80;62.13
46129;BME280;31860;45.186;5.790;2023-05-03T01:38:16;99406.69;;;16.80;62.33
46129;BME280;31860;45.186;5.790;2023-05-03T01:40:51;99405.88;;;16.78;62.57
46129;BME280;31860;45.186;5.790;2023-05-03T01:43:17;99404.19;;;16.76;63.12
46129;BME280;31860;45.186;5.790;2023-05-03T01:45:43;99406.88;;;16.73;62.50
46129;BME280;31860;45.186;5.790;2023-05-03T01:48:14;99408.66;;;16.72;62.80
46129;BME280;31860;45.186;5.790;2023-05-03T01:50:40;99406.88;;;16.73;62.64
46129;BME280;31860;45.186;5.790;2023-05-03T01:53:05;99414.81;;;16.71;63.20
46129;BME280;31860;45.186;5.790;2023-05-03T01:55:31;99406.06;;;16.69;63.06
46129;BME280;31860;45.186;5.790;2023-05-03T01:57:56;99408.75;;;16.68;63.13
46129;BME280;31860;45.186;5.790;2023-05-03T02:00:21;99409.63;;;16.67;63.02
46129;BME280;31860;45.186;5.790;2023-05-03T02:02:47;99411.44;;;16.66;63.14
46129;BME280;31860;45.186;5.790;2023-05-03T02:05:12;99418.50;;;16.64;63.61
46129;BME280;31860;45.186;5.790;2023-05-03T02:07:38;99417.63;;;16.64;63.43
46129;BME280;31860;45.186;5.790;2023-05-03T02:10:04;99420.28;;;16.62;63.57
46129;BME280;31860;45.186;5.790;2023-05-03T02:12:30;99422.97;;;16.61;63.87
46129;BME280;31860;45.186;5.790;2023-05-03T02:14:55;99418.56;;;16.60;63.89
46129;BME280;31860;45.186;5.790;2023-05-03T02:17:20;99429.16;;;16.58;64.02
46129;BME280;31860;45.186;5.790;2023-05-03T02:19:50;99432.69;;;16.59;64.10
46129;BME280;31860;45.186;5.790;2023-05-03T02:22:16;99434.47;;;16.57;64.34
46129;BME280;31860;45.186;5.790;2023-05-03T02:24:42;99440.63;;;16.56;64.46
46129;BME280;31860;45.186;5.790;2023-05-03T02:27:07;99431.88;;;16.54;64.58
46129;BME280;31860;45.186;5.790;2023-05-03T02:29:32;99428.41;;;16.52;64.65
46129;BME280;31860;45.186;5.790;2023-05-03T02:31:58;99430.25;;;16.50;64.60
46129;BME280;31860;45.186;5.790;2023-05-03T02:34:24;99424.13;;;16.48;64.90
46129;BME280;31860;45.186;5.790;2023-05-03T02:36:50;99425.88;;;16.46;64.86
46129;BME280;31860;45.186;5.790;2023-05-03T02:39:15;99424.16;;;16.43;65.11
46129;BME280;31860;45.186;5.790;2023-05-03T02:41:41;99420.66;;;16.43;65.10
46129;BME280;31860;45.186;5.790;2023-05-03T02:44:06;99426.81;;;16.43;65.13
46129;BME280;31860;45.186;5.790;2023-05-03T02:46:31;99432.16;;;16.40;65.37
46129;BME280;31860;45.186;5.790;2023-05-03T02:48:57;99426.88;;;16.39;65.44
46129;BME280;31860;45.186;5.790;2023-05-03T02:51:22;99422.56;;;16.36;65.63
46129;BME280;31860;45.186;5.790;2023-05-03T02:53:48;99419.03;;;16.36;65.76
46129;BME280;31860;45.186;5.790;2023-05-03T02:56:13;99419.97;;;16.35;65.74
46129;BME280;31860;45.186;5.790;2023-05-03T02:58:38;99423.47;;;16.34;65.94
46129;BME280;31860;45.186;5.790;2023-05-03T03:01:04;99428.78;;;16.32;65.96
46129;BME280;31860;45.186;5.790;2023-05-03T03:03:29;99427.03;;;16.31;66.44
46129;BME280;31860;45.186;5.790;2023-05-03T03:05:55;99419.19;;;16.28;66.67
46129;BME280;31860;45.186;5.790;2023-05-03T03:08:21;99417.47;;;16.27;66.78
46129;BME280;31860;45.186;5.790;2023-05-03T03:10:47;99417.50;;;16.24;66.91
46129;BME280;31860;45.186;5.790;2023-05-03T03:13:13;99422.78;;;16.24;66.96
46129;BME280;31860;45.186;5.790;2023-05-03T03:15:38;99420.22;;;16.21;66.75
46129;BME280;31860;45.186;5.790;2023-05-03T03:18:04;99418.50;;;16.19;67.10
46129;BME280;31860;45.186;5.790;2023-05-03T03:20:30;99423.72;;;16.20;67.34
46129;BME280;31860;45.186;5.790;2023-05-03T03:22:55;99421.16;;;16.17;67.19
46129;BME280;31860;45.186;5.790;2023-05-03T03:25:20;99431.72;;;16.17;67.31
46129;BME280;31860;45.186;5.790;2023-05-03T03:27:46;99426.47;;;16.14;67.33
46129;BME280;31860;45.186;5.790;2023-05-03T03:30:11;99433.56;;;16.12;67.66
46129;BME280;31860;45.186;5.790;2023-05-03T03:32:37;99432.66;;;16.13;67.58
46129;BME280;31860;45.186;5.790;2023-05-03T03:35:02;99434.47;;;16.11;68.14
46129;BME280;31860;45.186;5.790;2023-05-03T03:37:28;99436.25;;;16.09;68.55
46129;BME280;31860;45.186;5.790;2023-05-03T03:39:53;99437.13;;;16.09;69.18
46129;BME280;31860;45.186;5.790;2023-05-03T03:42:18;99443.28;;;16.10;69.37
46129;BME280;31860;45.186;5.790;2023-05-03T03:44:46;99438.00;;;16.08;69.55
46129;BME280;31860;45.186;5.790;2023-05-03T03:47:11;99441.56;;;16.07;69.47
46129;BME280;31860;45.186;5.790;2023-05-03T03:49:37;99442.44;;;16.06;69.69
46129;BME280;31860;45.186;5.790;2023-05-03T03:52:02;99445.13;;;16.03;69.88
46129;BME280;31860;45.186;5.790;2023-05-03T03:54:28;99443.38;;;16.04;69.51
46129;BME280;31860;45.186;5.790;2023-05-03T03:56:53;99442.47;;;16.05;69.68
46129;BME280;31860;45.186;5.790;2023-05-03T03:59:18;99452.16;;;16.03;69.72
46129;BME280;31860;45.186;5.790;2023-05-03T04:01:44;99447.81;;;16.02;69.56
46129;BME280;31860;45.186;5.790;2023-05-03T04:04:10;99449.53;;;16.03;69.91
46129;BME280;31860;45.186;5.790;2023-05-03T04:06:35;99454.78;;;16.03;69.81
46129;BME280;31860;45.186;5.790;2023-05-03T04:09:01;99453.94;;;16.01;69.63
46129;BME280;31860;45.186;5.790;2023-05-03T04:11:26;99456.59;;;16.01;69.69
46129;BME280;31860;45.186;5.790;2023-05-03T04:13:51;99456.59;;;16.01;69.92
46129;BME280;31860;45.186;5.790;2023-05-03T04:16:17;99454.88;;;16.00;70.14
46129;BME280;31860;45.186;5.790;2023-05-03T04:18:43;99457.53;;;15.98;70.34
46129;BME280;31860;45.186;5.790;2023-05-03T04:21:08;99456.63;;;15.99;69.96
46129;BME280;31860;45.186;5.790;2023-05-03T04:23:34;99451.38;;;15.98;70.03
46129;BME280;31860;45.186;5.790;2023-05-03T04:25:59;99454.03;;;15.98;69.92
46129;BME280;31860;45.186;5.790;2023-05-03T04:28:25;99451.41;;;15.96;69.92
46129;BME280;31860;45.186;5.790;2023-05-03T04:30:51;99450.53;;;15.96;69.90
46129;BME280;31860;45.186;5.790;2023-05-03T04:33:17;99450.56;;;15.94;70.14
46129;BME280;31860;45.186;5.790;2023-05-03T04:35:49;99449.75;;;15.91;70.35
46129;BME280;31860;45.186;5.790;2023-05-03T04:38:15;99462.97;;;15.88;70.41
46129;BME280;31860;45.186;5.790;2023-05-03T04:40:41;99464.72;;;15.89;70.40
46129;BME280;31860;45.186;5.790;2023-05-03T04:43:07;99467.28;;;15.92;70.39
46129;BME280;31860;45.186;5.790;2023-05-03T04:45:32;99464.66;;;15.92;70.78
46129;BME280;31860;45.186;5.790;2023-05-03T04:47:58;99471.72;;;15.90;70.83
46129;BME280;31860;45.186;5.790;2023-05-03T04:50:23;99472.66;;;15.87;71.35
46129;BME280;31860;45.186;5.790;2023-05-03T04:52:48;99466.47;;;15.88;71.43
46129;BME280;31860;45.186;5.790;2023-05-03T04:55:14;99477.00;;;15.88;71.35
46129;BME280;31860;45.186;5.790;2023-05-03T04:57:39;99475.28;;;15.86;71.12
46129;BME280;31860;45.186;5.790;2023-05-03T05:00:05;99478.84;;;15.85;71.18
46129;BME280;31860;45.186;5.790;2023-05-03T05:02:35;99480.66;;;15.81;71.12
46129;BME280;31860;45.186;5.790;2023-05-03T05:05:01;99483.31;;;15.80;71.25
46129;BME280;31860;45.186;5.790;2023-05-03T05:07:27;99490.28;;;15.82;71.20
46129;BME280;31860;45.186;5.790;2023-05-03T05:09:53;99487.69;;;15.81;71.28
46129;BME280;31860;45.186;5.790;2023-05-03T05:12:18;99491.16;;;15.83;71.40
46129;BME280;31860;45.186;5.790;2023-05-03T05:14:43;99487.63;;;15.84;71.50
46129;BME280;31860;45.186;5.790;2023-05-03T05:17:09;99495.53;;;15.85;71.46
46129;BME280;31860;45.186;5.790;2023-05-03T05:19:34;99487.59;;;15.87;71.29
46129;BME280;31860;45.186;5.790;2023-05-03T05:22:00;99489.31;;;15.89;71.31
46129;BME280;31860;45.186;5.790;2023-05-03T05:24:25;99491.88;;;15.92;71.49
46129;BME280;31860;45.186;5.790;2023-05-03T05:26:51;99483.06;;;15.93;71.60
46129;BME280;31860;45.186;5.790;2023-05-03T05:29:16;99482.19;;;15.94;71.62
46129;BME280;31860;45.186;5.790;2023-05-03T05:31:42;99490.91;;;15.98;71.63
46129;BME280;31860;45.186;5.790;2023-05-03T05:34:07;99491.78;;;15.98;71.59
46129;BME280;31860;45.186;5.790;2023-05-03T05:36:32;99495.22;;;16.02;71.31
46129;BME280;31860;45.186;5.790;2023-05-03T05:38:58;99496.94;;;16.06;71.30
46129;BME280;31860;45.186;5.790;2023-05-03T05:41:23;99509.19;;;16.07;70.98
46129;BME280;31860;45.186;5.790;2023-05-03T05:43:49;99496.84;;;16.09;71.40
46129;BME280;31860;45.186;5.790;2023-05-03T05:46:14;99504.81;;;16.07;71.48
46129;BME280;31860;45.186;5.790;2023-05-03T05:48:41;99504.75;;;16.09;71.17
46129;BME280;31860;45.186;5.790;2023-05-03T05:51:06;99503.84;;;16.11;71.71
46129;BME280;31860;45.186;5.790;2023-05-03T05:53:32;99502.88;;;16.17;71.53
46129;BME280;31860;45.186;5.790;2023-05-03T05:55:57;99507.19;;;16.21;71.53
46129;BME280;31860;45.186;5.790;2023-05-03T05:58:23;99506.25;;;16.24;71.91
46129;BME280;31860;45.186;5.790;2023-05-03T06:00:48;99511.44;;;16.30;71.78
46129;BME280;31860;45.186;5.790;2023-05-03T06:03:14;99499.91;;;16.35;71.78
46129;BME280;31860;45.186;5.790;2023-05-03T06:05:41;99501.63;;;16.38;72.38
46129;BME280;31860;45.186;5.790;2023-05-03T06:08:07;99501.50;;;16.44;72.94
46129;BME280;31860;45.186;5.790;2023-05-03T06:10:33;99503.22;;;16.48;72.76
46129;BME280;31860;45.186;5.790;2023-05-03T06:12:59;99494.34;;;16.53;73.09
46129;BME280;31860;45.186;5.790;2023-05-03T06:15:24;99498.63;;;16.59;72.45
46129;BME280;31860;45.186;5.790;2023-05-03T06:17:50;99495.00;;;16.64;71.40
46129;BME280;31860;45.186;5.790;2023-05-03T06:20:16;99491.41;;;16.68;71.00
46129;BME280;31860;45.186;5.790;2023-05-03T06:22:42;99493.03;;;16.74;70.85
46129;BME280;31860;45.186;5.790;2023-05-03T06:25:07;99489.38;;;16.81;70.72
46129;BME280;31860;45.186;5.790;2023-05-03T06:27:33;99485.75;;;16.86;70.70
46129;BME280;31860;45.186;5.790;2023-05-03T06:29:59;99484.75;;;16.92;71.05
46129;BME280;31860;45.186;5.790;2023-05-03T06:32:24;99486.34;;;16.99;71.36
46129;BME280;31860;45.186;5.790;2023-05-03T06:34:50;99479.19;;;17.05;71.50
46129;BME280;31860;45.186;5.790;2023-05-03T06:37:16;99486.06;;;17.13;71.01
46129;BME280;31860;45.186;5.790;2023-05-03T06:39:41;99485.06;;;17.18;70.99
46129;BME280;31860;45.186;5.790;2023-05-03T06:42:06;99483.16;;;17.25;70.64
46129;BME280;31860;45.186;5.790;2023-05-03T06:44:32;99489.16;;;17.31;70.74
46129;BME280;31860;45.186;5.790;2023-05-03T06:46:57;99479.38;;;17.36;71.18
46129;BME280;31860;45.186;5.790;2023-05-03T06:49:23;99477.44;;;17.43;71.04
46129;BME280;31860;45.186;5.790;2023-05-03T06:51:48;99472.06;;;17.47;71.24
46129;BME280;31860;45.186;5.790;2023-05-03T06:54:14;99479.03;;;17.53;71.15
46129;BME280;31860;45.186;5.790;2023-05-03T06:56:39;99483.25;;;17.60;71.11
46129;BME280;31860;45.186;5.790;2023-05-03T06:59:05;99478.72;;;17.65;70.50
46129;BME280;31860;45.186;5.790;2023-05-03T07:01:32;99476.84;;;17.70;69.85
46129;BME280;31860;45.186;5.790;2023-05-03T07:03:58;99478.50;;;17.74;69.41
46129;BME280;31860;45.186;5.790;2023-05-03T07:06:23;99472.22;;;17.79;68.85
46129;BME280;31860;45.186;5.790;2023-05-03T07:08:50;99467.66;;;17.84;68.72
46129;BME280;31860;45.186;5.790;2023-05-03T07:11:17;99465.75;;;17.91;68.48
46129;BME280;31860;45.186;5.790;2023-05-03T07:13:42;99461.22;;;17.96;68.83
46129;BME280;31860;45.186;5.790;2023-05-03T07:16:08;99461.94;;;18.01;68.72
46129;BME280;31860;45.186;5.790;2023-05-03T07:18:33;99446.84;;;18.06;68.95
46129;BME280;31860;45.186;5.790;2023-05-03T07:20:59;99459.06;;;18.12;68.54
46129;BME280;31860;45.186;5.790;2023-05-03T07:23:30;99451.84;;;18.17;68.73
46129;BME280;31860;45.186;5.790;2023-05-03T07:25:55;99443.75;;;18.23;68.89
46129;BME280;31860;45.186;5.790;2023-05-03T07:28:21;99449.78;;;18.28;68.43
46129;BME280;31860;45.186;5.790;2023-05-03T07:30:47;99447.88;;;18.33;67.57
46129;BME280;31860;45.186;5.790;2023-05-03T07:33:12;99448.66;;;18.38;67.37
46129;BME280;31860;45.186;5.790;2023-05-03T07:35:38;99441.50;;;18.41;67.22
46129;BME280;31860;45.186;5.790;2023-05-03T07:38:03;99445.72;;;18.48;67.50
46129;BME280;31860;45.186;5.790;2023-05-03T07:40:28;99439.44;;;18.52;67.69
46129;BME280;31860;45.186;5.790;2023-05-03T07:42:58;99441.91;;;18.58;67.77
46129;BME280;31860;45.186;5.790;2023-05-03T07:45:24;99434.72;;;18.63;67.55
46129;BME280;31860;45.186;5.790;2023-05-03T07:47:49;99439.00;;;18.67;67.39
46129;BME280;31860;45.186;5.790;2023-05-03T07:50:15;99430.94;;;18.72;66.93
46129;BME280;31860;45.186;5.790;2023-05-03T07:52:40;99430.75;;;18.78;66.81
46129;BME280;31860;45.186;5.790;2023-05-03T07:55:07;99432.38;;;18.82;66.66
46129;BME280;31860;45.186;5.790;2023-05-03T07:57:33;99437.47;;;18.89;66.71
46129;BME280;31860;45.186;5.790;2023-05-03T07:59:58;99435.56;;;18.95;66.93
46129;BME280;31860;45.186;5.790;2023-05-03T08:02:24;99434.47;;;19.02;67.08
46129;BME280;31860;45.186;5.790;2023-05-03T08:04:50;99437.00;;;19.05;66.32
46129;BME280;31860;45.186;5.790;2023-05-03T08:07:15;99434.19;;;19.11;65.84
46129;BME280;31860;45.186;5.790;2023-05-03T08:09:41;99433.13;;;19.16;65.14
46129;BME280;31860;45.186;5.790;2023-05-03T08:12:07;99435.69;;;19.19;64.68
46129;BME280;31860;45.186;5.790;2023-05-03T08:14:32;99439.09;;;19.23;63.80
46129;BME280;31860;45.186;5.790;2023-05-03T08:16:58;99437.16;;;19.28;63.43
46129;BME280;31860;45.186;5.790;2023-05-03T08:19:24;99429.13;;;19.32;63.44
46129;BME280;31860;45.186;5.790;2023-05-03T08:21:49;99431.63;;;19.37;62.91
46129;BME280;31860;45.186;5.790;2023-05-03T08:24:16;99422.59;;;19.42;62.40
46129;BME280;31860;45.186;5.790;2023-05-03T08:26:41;99431.25;;;19.49;62.04
46129;BME280;31860;45.186;5.790;2023-05-03T08:29:11;99424.94;;;19.53;61.50
46129;BME280;31860;45.186;5.790;2023-05-03T08:31:37;99416.78;;;19.59;61.95
46129;BME280;31860;45.186;5.790;2023-05-03T08:34:03;99415.72;;;19.64;62.46
46129;BME280;31860;45.186;5.790;2023-05-03T08:36:32;99408.41;;;19.71;61.51
46129;BME280;31860;45.186;5.790;2023-05-03T08:39:00;99409.97;;;19.76;60.40
46129;BME280;31860;45.186;5.790;2023-05-03T08:41:30;99400.91;;;19.83;59.99
46129;BME280;31860;45.186;5.790;2023-05-03T08:43:56;99401.56;;;19.90;59.22
46129;BME280;31860;45.186;5.790;2023-05-03T08:46:23;99392.59;;;19.94;58.43
46129;BME280;31860;45.186;5.790;2023-05-03T08:48:51;99392.38;;;20.00;58.21
46129;BME280;31860;45.186;5.790;2023-05-03T08:51:17;99396.63;;;20.06;58.75
46129;BME280;31860;45.186;5.790;2023-05-03T08:53:44;99399.97;;;20.11;58.42
46129;BME280;31860;45.186;5.790;2023-05-03T08:56:11;99395.31;;;20.17;58.12
46129;BME280;31860;45.186;5.790;2023-05-03T08:58:38;99394.19;;;20.24;58.46
46129;BME280;31860;45.186;5.790;2023-05-03T09:01:08;99403.66;;;20.31;58.01
46129;BME280;31860;45.186;5.790;2023-05-03T09:03:34;99394.63;;;20.37;57.53
46129;BME280;31860;45.186;5.790;2023-05-03T09:06:00;99394.34;;;20.44;57.22
46129;BME280;31860;45.186;5.790;2023-05-03T09:08:29;99384.44;;;20.49;57.42
46129;BME280;31860;45.186;5.790;2023-05-03T09:10:55;99386.84;;;20.55;57.21
46129;BME280;31860;45.186;5.790;2023-05-03T09:13:28;99383.16;;;20.59;56.26
46129;BME280;31860;45.186;5.790;2023-05-03T09:15:55;99381.22;;;20.64;56.17
46129;BME280;31860;45.186;5.790;2023-05-03T09:18:21;99382.78;;;20.70;55.90
46129;BME280;31860;45.186;5.790;2023-05-03T09:20:49;99372.03;;;20.73;56.09
46129;BME280;31860;45.186;5.790;2023-05-03T09:23:39;99382.34;;;20.81;55.61
46129;BME280;31860;45.186;5.790;2023-05-03T09:26:04;99374.22;;;20.85;54.70
46129;BME280;31860;45.186;5.790;2023-05-03T09:28:40;99369.53;;;20.92;54.53
46129;BME280;31860;45.186;5.790;2023-05-03T09:31:05;99365.75;;;20.97;55.10
46129;BME280;31860;45.186;5.790;2023-05-03T09:33:32;99374.50;;;21.01;54.82
46129;BME280;31860;45.186;5.790;2023-05-03T09:35:59;99370.69;;;21.08;54.92
46129;BME280;31860;45.186;5.790;2023-05-03T09:38:29;99375.75;;;21.14;54.54
46129;BME280;31860;45.186;5.790;2023-05-03T09:40:55;99365.75;;;21.20;54.34
46129;BME280;31860;45.186;5.790;2023-05-03T09:43:21;99372.63;;;21.26;54.02
46129;BME280;31860;45.186;5.790;2023-05-03T09:45:46;99367.06;;;21.32;53.28
46129;BME280;31860;45.186;5.790;2023-05-03T09:48:12;99365.94;;;21.37;52.53
46129;BME280;31860;45.186;5.790;2023-05-03T09:50:38;99363.94;;;21.42;52.18
46129;BME280;31860;45.186;5.790;2023-05-03T09:53:05;99369.88;;;21.49;51.88
46129;BME280;31860;45.186;5.790;2023-05-03T09:55:35;99374.09;;;21.54;52.14
46129;BME280;31860;45.186;5.790;2023-05-03T09:58:02;99372.09;;;21.59;51.47
46129;BME280;31860;45.186;5.790;2023-05-03T10:00:37;99366.59;;;21.64;50.82
46129;BME280;31860;45.186;5.790;2023-05-03T10:03:10;99365.53;;;21.68;49.95
46129;BME280;31860;45.186;5.790;2023-05-03T10:05:42;99369.81;;;21.72;50.09
46129;BME280;31860;45.186;5.790;2023-05-03T10:08:09;99367.81;;;21.77;51.12
46129;BME280;31860;45.186;5.790;2023-05-03T10:10:36;99357.88;;;21.82;50.84
46129;BME280;31860;45.186;5.790;2023-05-03T10:13:04;99353.22;;;21.87;51.27
46129;BME280;31860;45.186;5.790;2023-05-03T10:15:30;99355.66;;;21.92;51.19
46129;BME280;31860;45.186;5.790;2023-05-03T10:17:57;99356.41;;;21.95;50.65
46129;BME280;31860;45.186;5.790;2023-05-03T10:21:18;99348.22;;;22.00;49.92
46129;BME280;31860;45.186;5.790;2023-05-03T10:23:22;99346.28;;;22.03;50.51
46129;BME280;31860;45.186;5.790;2023-05-03T10:28:36;99341.63;;;22.08;49.14
46129;BME280;31860;45.186;5.790;2023-05-03T10:31:01;99336.19;;;22.11;49.53
46129;BME280;31860;45.186;5.790;2023-05-03T10:35:53;99333.31;;;22.16;49.35
46129;BME280;31860;45.186;5.790;2023-05-03T10:38:23;99327.00;;;22.18;49.11
46129;BME280;31860;45.186;5.790;2023-05-03T10:40:49;99327.72;;;22.22;49.69
46129;BME280;31860;45.186;5.790;2023-05-03T10:45:59;99326.66;;;22.26;49.27
46129;BME280;31860;45.186;5.790;2023-05-03T10:48:25;99321.31;;;22.26;48.83
46129;BME280;31860;45.186;5.790;2023-05-03T10:50:53;99315.91;;;22.27;49.28
46129;BME280;31860;45.186;5.790;2023-05-03T10:53:40;99313.19;;;22.29;48.14
46129;BME280;31860;45.186;5.790;2023-05-03T10:56:09;99314.06;;;22.29;49.83
46129;BME280;31860;45.186;5.790;2023-05-03T10:58:41;99302.41;;;22.32;49.34
46129;BME280;31860;45.186;5.790;2023-05-03T11:01:09;99312.13;;;22.33;49.23
46129;BME280;31860;45.186;5.790;2023-05-03T11:06:37;99302.25;;;22.35;47.80
46129;BME280;31860;45.186;5.790;2023-05-03T11:09:04;99303.22;;;22.34;48.64
46129;BME280;31860;45.186;5.790;2023-05-03T11:11:31;99305.81;;;22.35;49.11
46129;BME280;31860;45.186;5.790;2023-05-03T11:13:57;99306.66;;;22.36;48.81
46129;BME280;31860;45.186;5.790;2023-05-03T11:16:23;99301.28;;;22.37;48.71
46129;BME280;31860;45.186;5.790;2023-05-03T11:18:49;99299.47;;;22.38;48.67
46129;BME280;31860;45.186;5.790;2023-05-03T11:21:15;99296.81;;;22.38;48.39
46129;BME280;31860;45.186;5.790;2023-05-03T11:23:42;99295.00;;;22.38;48.44
46129;BME280;31860;45.186;5.790;2023-05-03T11:26:08;99282.56;;;22.39;48.59
46129;BME280;31860;45.186;5.790;2023-05-03T11:28:36;99287.88;;;22.39;49.43
46129;BME280;31860;45.186;5.790;2023-05-03T11:31:01;99287.81;;;22.40;49.20
46129;BME280;31860;45.186;5.790;2023-05-03T11:33:28;99288.69;;;22.41;49.14
46129;BME280;31860;45.186;5.790;2023-05-03T11:35:56;99280.69;;;22.41;48.83
46129;BME280;31860;45.186;5.790;2023-05-03T11:38:21;99281.47;;;22.43;48.67
46129;BME280;31860;45.186;5.790;2023-05-03T11:40:47;99273.41;;;22.44;48.49
46129;BME280;31860;45.186;5.790;2023-05-03T11:43:12;99271.63;;;22.45;48.55
46129;BME280;31860;45.186;5.790;2023-05-03T11:45:43;99276.88;;;22.46;48.62
46129;BME280;31860;45.186;5.790;2023-05-03T11:48:10;99266.22;;;22.46;48.71
46129;BME280;31860;45.186;5.790;2023-05-03T11:50:49;99272.41;;;22.47;49.03
46129;BME280;31860;45.186;5.790;2023-05-03T11:53:18;99267.09;;;22.47;49.38
46129;BME280;31860;45.186;5.790;2023-05-03T11:55:46;99264.44;;;22.47;49.85
46129;BME280;31860;45.186;5.790;2023-05-03T11:58:19;99252.00;;;22.47;49.52
46129;BME280;31860;45.186;5.790;2023-05-03T12:00:47;99253.78;;;22.47;49.23
46129;BME280;31860;45.186;5.790;2023-05-03T12:03:20;99252.91;;;22.46;48.50
46129;BME280;31860;45.186;5.790;2023-05-03T12:05:47;99253.78;;;22.47;48.86
46129;BME280;31860;45.186;5.790;2023-05-03T12:08:13;99240.56;;;22.45;48.99
46129;BME280;31860;45.186;5.790;2023-05-03T12:10:40;99243.22;;;22.45;48.90
46129;BME280;31860;45.186;5.790;2023-05-03T12:13:05;99240.56;;;22.45;49.05
46129;BME280;31860;45.186;5.790;2023-05-03T12:15:36;99240.56;;;22.45;49.13
46129;BME280;31860;45.186;5.790;2023-05-03T12:18:10;99230.81;;;22.44;48.76
46129;BME280;31860;45.186;5.790;2023-05-03T12:20:37;99231.69;;;22.45;49.21
46129;BME280;31860;45.186;5.790;2023-05-03T12:23:04;99236.06;;;22.46;49.38
46129;BME280;31860;45.186;5.790;2023-05-03T12:25:32;99234.19;;;22.48;49.09
46129;BME280;31860;45.186;5.790;2023-05-03T12:27:59;99225.38;;;22.47;49.03
46129;BME280;31860;45.186;5.790;2023-05-03T12:30:25;99233.28;;;22.49;49.64
46129;BME280;31860;45.186;5.790;2023-05-03T12:32:51;99225.28;;;22.49;49.50
46129;BME280;31860;45.186;5.790;2023-05-03T12:35:18;99218.13;;;22.49;48.98
46129;BME280;31860;45.186;5.790;2023-05-03T12:37:45;99211.91;;;22.50;48.79
46129;BME280;31860;45.186;5.790;2023-05-03T12:40:11;99207.44;;;22.51;49.08
46129;BME280;31860;45.186;5.790;2023-05-03T12:42:36;99204.78;;;22.51;48.81
46129;BME280;31860;45.186;5.790;2023-05-03T12:45:02;99202.94;;;22.51;48.76
46129;BME280;31860;45.186;5.790;2023-05-03T12:47:28;99193.16;;;22.52;48.77
46129;BME280;31860;45.186;5.790;2023-05-03T12:49:53;99197.56;;;22.53;48.86
46129;BME280;31860;45.186;5.790;2023-05-03T12:52:20;99191.31;;;22.54;48.80
46129;BME280;31860;45.186;5.790;2023-05-03T12:54:46;99185.09;;;22.53;49.18
46129;BME280;31860;45.186;5.790;2023-05-03T12:57:11;99188.56;;;22.55;49.09
46129;BME280;31860;45.186;5.790;2023-05-03T12:59:38;99184.13;;;22.56;48.97
46129;BME280;31860;45.186;5.790;2023-05-03T13:02:04;99184.13;;;22.56;48.89
46129;BME280;31860;45.186;5.790;2023-05-03T13:04:30;99178.72;;;22.57;48.64
46129;BME280;31860;45.186;5.790;2023-05-03T13:06:57;99173.41;;;22.57;48.60
46129;BME280;31860;45.186;5.790;2023-05-03T13:09:22;99168.94;;;22.58;49.09
46129;BME280;31860;45.186;5.790;2023-05-03T13:11:48;99168.88;;;22.59;48.99
46129;BME280;31860;45.186;5.790;2023-05-03T13:14:14;99159.09;;;22.60;49.22
46129;BME280;31860;45.186;5.790;2023-05-03T13:16:43;99154.63;;;22.61;49.29
46129;BME280;31860;45.186;5.790;2023-05-03T13:19:13;99167.00;;;22.62;49.47